Time;durP1;ratioP1;P1;durP2;ratioP2;P2;SDS_P1;SDS_P2;PMS_P1;PMS_P2;Temp;Humidity;BMP_temperature;BMP_pressure;BME280_temperature;BME280_humidity;BME280_pressure;Samples;Min_cycle;Max_cycle;Signal;HPM_P1;HPM_P2
2024/03/13 00:00:10;;;;;;;24.80;17.60;;;;;;;6.55;100.00;98647.62;108942;1260;59485;-75
2024/03/13 00:02:56;;;;;;;23.50;18.10;;;;;;;6.54;100.00;98647.35;108915;1260;66207;-74
2024/03/13 00:05:22;;;;;;;24.20;18.60;;;;;;;6.52;100.00;98646.39;108906;1260;59987;-73
2024/03/13 00:07:49;;;;;;;29.60;22.70;;;;;;;6.52;100.00;98646.74;108887;1260;62873;-75
2024/03/13 00:10:16;;;;;;;26.90;20.60;;;;;;;6.51;100.00;98649.09;108894;1260;59058;-74
2024/03/13 00:12:43;;;;;;;23.50;20.00;;;;;;;6.52;100.00;98650.27;108931;1260;58905;-74
2024/03/13 00:15:13;;;;;;;25.40;20.00;;;;;;;6.52;100.00;98648.88;108924;1260;65726;-74
2024/03/13 00:17:40;;;;;;;;;;;;;;;6.52;100.00;98648.67;108926;1260;59988;-73
2024/03/13 00:20:11;;;;;;;22.00;17.60;;;;;;;6.51;100.00;98647.69;108893;1260;59420;-74
2024/03/13 00:22:37;;;;;;;20.90;17.70;;;;;;;6.50;100.00;98648.08;108881;1260;58988;-74
2024/03/13 00:25:10;;;;;;;19.70;16.10;;;;;;;6.50;100.00;98649.14;108946;1260;59149;-73
2024/03/13 00:27:37;;;;;;;20.10;16.10;;;;;;;6.51;100.00;98649.66;108804;1260;65867;-73
2024/03/13 00:30:05;;;;;;;18.60;15.60;;;;;;;6.51;100.00;98647.73;108881;1260;58963;-73
2024/03/13 00:32:32;;;;;;;16.60;14.80;;;;;;;6.50;100.00;98645.98;108740;1260;64125;-73
2024/03/13 00:35:01;;;;;;;17.30;15.40;;;;;;;6.50;100.00;98647.75;108889;1260;58968;-73
2024/03/13 00:37:27;;;;;;;18.00;16.20;;;;;;;6.49;100.00;98647.42;108905;1260;59077;-72
2024/03/13 00:39:54;;;;;;;16.60;14.80;;;;;;;6.50;100.00;98652.17;108904;1260;58895;-74
2024/03/13 00:42:21;;;;;;;17.40;15.40;;;;;;;6.50;100.00;98650.42;108906;1260;59041;-73
2024/03/13 00:44:47;;;;;;;16.70;14.90;;;;;;;6.51;100.00;98654.25;108732;1260;62975;-72
2024/03/13 00:47:18;;;;;;;16.90;15.00;;;;;;;6.50;100.00;98652.72;108902;1260;58999;-73
2024/03/13 00:49:44;;;;;;;18.90;15.60;;;;;;;6.48;100.00;98649.98;108919;1260;59075;-74
2024/03/13 00:52:11;;;;;;;19.80;16.60;;;;;;;6.46;100.00;98649.91;108918;1260;59284;-74
2024/03/13 00:54:44;;;;;;;18.30;15.70;;;;;;;6.46;100.00;98654.02;108929;1260;59404;-74
2024/03/13 00:57:14;;;;;;;18.80;15.40;;;;;;;6.45;100.00;98653.17;108913;1260;64133;-74
2024/03/13 00:59:41;;;;;;;17.60;14.70;;;;;;;6.43;100.00;98655.20;108868;1260;59029;-74
2024/03/13 01:02:08;;;;;;;22.60;16.40;;;;;;;6.42;100.00;98649.95;108925;1260;59035;-74
2024/03/13 01:04:35;;;;;;;18.50;15.90;;;;;;;6.42;100.00;98650.86;108925;1260;64816;-74
2024/03/13 01:07:02;;;;;;;17.70;15.80;;;;;;;6.41;100.00;98650.20;108949;1260;59815;-74
2024/03/13 01:09:29;;;;;;;19.40;17.30;;;;;;;6.42;100.00;98647.33;108933;1260;65287;-74
2024/03/13 01:11:55;;;;;;;19.40;15.90;;;;;;;6.42;100.00;98647.13;108908;1260;58974;-74
2024/03/13 01:14:22;;;;;;;20.40;17.20;;;;;;;6.43;100.00;98649.21;108922;1260;59109;-74
2024/03/13 01:16:53;;;;;;;20.30;18.00;;;;;;;6.42;100.00;98652.24;108977;1259;59300;-73
2024/03/13 01:19:21;;;;;;;23.40;19.10;;;;;;;6.42;100.00;98653.84;108948;1259;59010;-73
2024/03/13 01:22:03;;;;;;;22.60;18.50;;;;;;;6.42;100.00;98655.80;108941;1259;64282;-74
2024/03/13 01:24:29;;;;;;;25.50;20.30;;;;;;;6.41;100.00;98656.17;108947;1260;58958;-73
2024/03/13 01:26:56;;;;;;;25.20;19.90;;;;;;;6.43;100.00;98659.09;108932;1259;58869;-72
2024/03/13 01:29:22;;;;;;;26.80;21.50;;;;;;;6.46;100.00;98660.36;108939;1259;59083;-73
2024/03/13 01:31:48;;;;;;;26.20;22.10;;;;;;;6.48;100.00;98656.90;108930;1259;58972;-74
2024/03/13 01:34:16;;;;;;;25.90;22.10;;;;;;;6.48;100.00;98653.70;108958;1259;59056;-74
2024/03/13 01:39:28;;;;;;;23.50;19.50;;;;;;;6.50;100.00;98657.13;108973;1259;59335;-74
2024/03/13 01:56:37;;;;;;;24.90;20.40;;;;;;;6.41;100.00;98664.88;108491;1266;66122;-74
2024/03/13 01:59:09;;;;;;;25.40;20.30;;;;;;;6.40;100.00;98666.84;108764;1259;59312;-74
2024/03/13 02:04:20;;;;;;;23.80;20.10;;;;;;;6.35;100.00;98665.00;108982;1259;59013;-74
2024/03/13 02:06:47;;;;;;;27.00;21.80;;;;;;;6.33;100.00;98671.81;108947;1260;59132;-74
2024/03/13 02:09:15;;;;;;;23.70;19.70;;;;;;;6.33;100.00;98669.19;108753;1260;64501;-72
2024/03/13 02:11:41;;;;;;;29.50;23.20;;;;;;;6.32;100.00;98671.16;108986;1259;60185;-73
2024/03/13 02:14:08;;;;;;;27.30;21.30;;;;;;;6.31;100.00;98672.09;108862;1260;63746;-74
2024/03/13 02:16:34;;;;;;;25.80;21.70;;;;;;;6.30;100.00;98671.95;108929;1259;59015;-73
2024/03/13 02:19:02;;;;;;;26.80;21.30;;;;;;;6.31;100.00;98673.33;108946;1260;59015;-72
2024/03/13 02:21:29;;;;;;;29.50;23.60;;;;;;;6.31;100.00;98675.60;108958;1260;64525;-73
2024/03/13 02:23:57;;;;;;;27.60;21.70;;;;;;;6.31;100.00;98671.38;108961;1260;60628;-74
2024/03/13 02:26:25;;;;;;;26.60;22.70;;;;;;;6.31;100.00;98669.42;108895;1259;64287;-75
2024/03/13 02:28:52;;;;;;;26.40;22.00;;;;;;;6.31;100.00;98669.11;108909;1259;58973;-72
2024/03/13 02:31:19;;;;;;;25.70;21.00;;;;;;;6.31;100.00;98669.96;108897;1259;59068;-74
2024/03/13 02:33:45;;;;;;;27.20;22.70;;;;;;;6.32;100.00;98667.81;108958;1260;65926;-73
2024/03/13 02:36:12;;;;;;;29.00;22.80;;;;;;;6.32;100.00;98667.79;108993;1259;59248;-74
2024/03/13 02:38:38;;;;;;;26.10;19.90;;;;;;;6.33;100.00;98667.59;108952;1259;58971;-74
2024/03/13 02:41:05;;;;;;;20.60;18.10;;;;;;;6.33;100.00;98668.13;108938;1259;59317;-74
2024/03/13 02:43:34;;;;;;;24.30;19.10;;;;;;;6.33;100.00;98667.41;108957;1259;59414;-73
2024/03/13 02:46:02;;;;;;;22.80;20.10;;;;;;;6.32;100.00;98670.42;108944;1259;64812;-74
2024/03/13 02:48:28;;;;;;;23.40;20.40;;;;;;;6.32;100.00;98672.58;108959;1260;59090;-73
2024/03/13 02:50:55;;;;;;;23.10;20.10;;;;;;;6.33;100.00;98672.15;108937;1259;62938;-75
2024/03/13 02:53:21;;;;;;;26.70;22.90;;;;;;;6.34;100.00;98671.24;108944;1259;59025;-75
2024/03/13 02:55:48;;;;;;;26.50;22.90;;;;;;;6.34;100.00;98670.84;108954;1259;59050;-74
2024/03/13 02:58:14;;;;;;;28.90;23.10;;;;;;;6.36;100.00;98670.74;108946;1259;58935;-73
2024/03/13 03:00:44;;;;;;;31.30;25.30;;;;;;;6.36;100.00;98673.72;108820;1261;59406;-74
2024/03/13 03:03:12;;;;;;;30.20;25.00;;;;;;;6.37;100.00;98674.41;108923;1260;62541;-74
2024/03/13 03:05:39;;;;;;;30.70;23.80;;;;;;;6.37;100.00;98672.62;108975;1259;59204;-73
2024/03/13 03:08:07;;;;;;;32.90;25.30;;;;;;;6.37;100.00;98674.94;108986;1259;58984;-74
2024/03/13 03:10:33;;;;;;;32.60;26.50;;;;;;;6.37;100.00;98674.77;108929;1260;64668;-73
2024/03/13 03:12:59;;;;;;;34.20;26.10;;;;;;;6.37;100.00;98672.98;108810;1260;58981;-73
2024/03/13 03:15:29;;;;;;;34.00;25.60;;;;;;;6.38;100.00;98672.23;108923;1259;59392;-74
2024/03/13 03:17:55;;;;;;;32.50;25.80;;;;;;;6.38;100.00;98674.52;108924;1260;58940;-74
2024/03/13 03:20:21;;;;;;;31.50;24.20;;;;;;;6.38;100.00;98673.98;108983;1259;59120;-74
2024/03/13 03:22:48;;;;;;;31.30;25.50;;;;;;;6.38;100.00;98675.93;108943;1260;58955;-74
2024/03/13 03:25:14;;;;;;;34.30;26.30;;;;;;;6.38;100.00;98677.88;108957;1260;59230;-74
2024/03/13 03:27:41;;;;;;;31.00;25.50;;;;;;;6.38;100.00;98676.46;108976;1259;59344;-74
2024/03/13 03:30:11;;;;;;;33.70;26.00;;;;;;;6.39;100.00;98675.88;108917;1259;59108;-72
2024/03/13 03:32:38;;;;;;;32.10;23.90;;;;;;;6.40;100.00;98674.61;108962;1260;59053;-74
2024/03/13 03:35:05;;;;;;;33.70;25.20;;;;;;;6.41;100.00;98677.59;108959;1259;66040;-73
2024/03/13 03:37:32;;;;;;;36.00;26.90;;;;;;;6.39;100.00;98676.98;108968;1260;60157;-74
2024/03/13 03:39:58;;;;;;;36.10;27.70;;;;;;;6.37;100.00;98678.27;108952;1260;59187;-74
2024/03/13 03:42:25;;;;;;;34.60;26.50;;;;;;;6.37;100.00;98678.80;108938;1259;58994;-73
2024/03/13 03:44:53;;;;;;;30.80;25.20;;;;;;;6.37;100.00;98675.61;108963;1259;59041;-74
2024/03/13 03:47:19;;;;;;;33.40;25.40;;;;;;;6.38;100.00;98679.65;108954;1259;65772;-74
2024/03/13 03:49:46;;;;;;;33.70;26.10;;;;;;;6.37;100.00;98678.46;108964;1259;59293;-73
2024/03/13 03:52:12;;;;;;;28.60;23.40;;;;;;;6.37;100.00;98677.05;108908;1259;59152;-73
2024/03/13 03:54:39;;;;;;;34.80;27.80;;;;;;;6.37;100.00;98678.46;108758;1260;59063;-73
2024/03/13 03:57:06;;;;;;;33.90;25.00;;;;;;;6.37;100.00;98681.11;108968;1260;59002;-74
2024/03/13 03:59:33;;;;;;;37.80;27.50;;;;;;;6.36;100.00;98681.67;108746;1259;59363;-74
2024/03/13 04:01:59;;;;;;;38.20;29.40;;;;;;;6.37;100.00;98682.52;108819;1260;59387;-74
2024/03/13 04:04:26;;;;;;;37.40;27.30;;;;;;;6.38;100.00;98683.67;108924;1260;59254;-73
2024/03/13 04:06:52;;;;;;;36.60;27.80;;;;;;;6.41;100.00;98681.44;108744;1259;59522;-72
2024/03/13 04:09:20;;;;;;;39.10;28.40;;;;;;;6.43;100.00;98685.39;108940;1260;58965;-74
2024/03/13 04:11:46;;;;;;;39.40;27.00;;;;;;;6.44;100.00;98687.66;108955;1259;64870;-73
2024/03/13 04:14:13;;;;;;;38.50;28.20;;;;;;;6.43;100.00;98685.05;108946;1259;60223;-74
2024/03/13 04:16:43;;;;;;;42.60;30.90;;;;;;;6.41;100.00;98686.55;108972;1260;59065;-72
2024/03/13 04:19:10;;;;;;;38.70;29.70;;;;;;;6.40;100.00;98687.67;108944;1259;59223;-74
2024/03/13 04:21:38;;;;;;;45.10;31.90;;;;;;;6.39;100.00;98692.81;108968;1259;59184;-74
2024/03/13 04:24:07;;;;;;;41.70;29.80;;;;;;;6.38;100.00;98692.33;108959;1259;66031;-73
2024/03/13 04:26:40;;;;;;;41.00;31.90;;;;;;;6.38;100.00;98691.66;108971;1259;60117;-74
2024/03/13 04:29:07;;;;;;;38.20;29.20;;;;;;;6.37;100.00;98695.92;108946;1260;64375;-74
2024/03/13 04:31:34;;;;;;;44.20;31.00;;;;;;;6.37;100.00;98695.76;108905;1259;58986;-74
2024/03/13 04:34:00;;;;;;;43.60;31.80;;;;;;;6.37;100.00;98698.57;108965;1259;59060;-73
2024/03/13 04:36:27;;;;;;;44.10;32.00;;;;;;;6.36;100.00;98698.59;108938;1260;59958;-73
2024/03/13 04:38:54;;;;;;;47.00;33.50;;;;;;;6.36;100.00;98698.95;108976;1259;59266;-73
2024/03/13 04:41:20;;;;;;;51.10;34.90;;;;;;;6.36;100.00;98700.20;108940;1260;62901;-75
2024/03/13 04:43:47;;;;;;;51.30;35.40;;;;;;;6.36;100.00;98699.30;108798;1259;59047;-72
2024/03/13 04:46:16;;;;;;;47.90;34.50;;;;;;;6.37;100.00;98698.92;108949;1259;59626;-72
2024/03/13 04:48:45;;;;;;;52.70;34.50;;;;;;;6.36;100.00;98703.20;108902;1260;66118;-74
2024/03/13 04:51:14;;;;;;;48.90;35.50;;;;;;;6.35;100.00;98706.80;108935;1260;59090;-73
2024/03/13 04:53:43;;;;;;;54.70;36.50;;;;;;;6.36;100.00;98708.16;108957;1259;64146;-73
2024/03/13 04:56:13;;;;;;;53.80;36.90;;;;;;;6.37;100.00;98706.68;108930;1259;59036;-73
2024/03/13 04:58:39;;;;;;;50.50;37.10;;;;;;;6.38;100.00;98710.02;108952;1259;58894;-74
2024/03/13 05:01:07;;;;;;;52.80;37.20;;;;;;;6.37;100.00;98714.09;108976;1259;65761;-74
2024/03/13 05:03:34;;;;;;;53.40;36.50;;;;;;;6.38;100.00;98715.48;108968;1259;60266;-74
2024/03/13 05:06:01;;;;;;;58.70;39.10;;;;;;;6.38;100.00;98715.66;108935;1259;63757;-73
2024/03/13 05:08:28;;;;;;;54.00;35.60;;;;;;;6.39;100.00;98721.42;108950;1259;58956;-74
2024/03/13 05:10:54;;;;;;;56.10;37.70;;;;;;;6.40;100.00;98722.08;108958;1259;59024;-74
2024/03/13 05:13:21;;;;;;;56.90;38.40;;;;;;;6.41;100.00;98726.30;108952;1260;59008;-74
2024/03/13 05:15:48;;;;;;;56.60;38.30;;;;;;;6.41;100.00;98728.40;108959;1260;59013;-74
2024/03/13 05:18:14;;;;;;;54.70;37.10;;;;;;;6.41;100.00;98729.80;108968;1259;73033;-74
2024/03/13 05:20:41;;;;;;;56.20;38.60;;;;;;;6.40;100.00;98729.52;108927;1259;59048;-72
2024/03/13 05:23:08;;;;;;;58.20;38.70;;;;;;;6.40;100.00;98730.73;108969;1259;59449;-74
2024/03/13 05:25:35;;;;;;;59.70;38.80;;;;;;;6.38;100.00;98731.86;108980;1260;64918;-74
2024/03/13 05:28:02;;;;;;;59.30;40.40;;;;;;;6.38;100.00;98736.66;108956;1259;59211;-73
2024/03/13 05:30:30;;;;;;;58.20;38.90;;;;;;;6.37;100.00;98735.08;108944;1259;63936;-73
2024/03/13 05:32:57;;;;;;;56.70;37.90;;;;;;;6.37;100.00;98737.05;108962;1259;58993;-72
2024/03/13 05:35:24;;;;;;;55.90;38.10;;;;;;;6.38;100.00;98737.52;108955;1259;59129;-74
2024/03/13 05:37:50;;;;;;;57.10;39.30;;;;;;;6.39;100.00;98741.19;108936;1260;65741;-74
2024/03/13 05:40:16;;;;;;;59.90;40.30;;;;;;;6.39;100.00;98744.88;108965;1260;59355;-74
2024/03/13 05:42:43;;;;;;;59.40;40.20;;;;;;;6.40;100.00;98742.03;108952;1260;64121;-73
2024/03/13 05:45:11;;;;;;;57.10;40.10;;;;;;;6.41;100.00;98746.75;108908;1260;58945;-74
2024/03/13 05:47:40;;;;;;;62.40;39.40;;;;;;;6.42;100.00;98751.61;108930;1260;58853;-74
2024/03/13 05:50:08;;;;;;;60.00;39.90;;;;;;;6.42;100.00;98755.32;108954;1260;66944;-74
2024/03/13 05:52:35;;;;;;;61.30;40.20;;;;;;;6.42;100.00;98754.77;108941;1259;60111;-75
2024/03/13 05:55:01;;;;;;;60.90;40.30;;;;;;;6.43;100.00;98754.92;108954;1259;64122;-75
2024/03/13 05:57:28;;;;;;;61.50;39.30;;;;;;;6.45;100.00;98749.52;108800;1260;58963;-72
2024/03/13 05:59:54;;;;;;;60.60;38.40;;;;;;;6.47;100.00;98756.64;108948;1260;59062;-75
2024/03/13 06:02:20;;;;;;;61.60;40.50;;;;;;;6.47;100.00;98760.69;108921;1260;59061;-75
2024/03/13 06:04:47;;;;;;;60.80;39.90;;;;;;;6.48;100.00;98760.46;108957;1259;59266;-74
2024/03/13 06:07:14;;;;;;;59.50;39.90;;;;;;;6.50;100.00;98766.88;108942;1260;63760;-74
2024/03/13 06:09:40;;;;;;;63.50;41.40;;;;;;;6.52;100.00;98767.86;108960;1259;59033;-75
2024/03/13 06:12:07;;;;;;;62.50;41.80;;;;;;;6.53;100.00;98769.70;108962;1260;59051;-74
2024/03/13 06:14:33;;;;;;;64.70;41.10;;;;;;;6.54;100.00;98776.04;108938;1260;58988;-74
2024/03/13 06:17:00;;;;;;;64.30;42.10;;;;;;;6.54;100.00;98775.84;108843;1260;59065;-73
2024/03/13 06:19:26;;;;;;;67.30;42.80;;;;;;;6.55;100.00;98779.15;108954;1260;62882;-73
2024/03/13 06:21:53;;;;;;;67.40;45.10;;;;;;;6.56;100.00;98783.52;108925;1259;59427;-73
2024/03/13 06:24:29;;;;;;;64.40;43.90;;;;;;;6.57;100.00;98784.50;108952;1259;59240;-75
2024/03/13 06:27:00;;;;;;;69.50;43.80;;;;;;;6.58;100.00;98785.31;108898;1260;64834;-76
2024/03/13 06:32:12;;;;;;;75.70;46.80;;;;;;;6.59;100.00;98786.33;108941;1260;63192;-74
2024/03/13 06:34:38;;;;;;;74.40;47.00;;;;;;;6.59;100.00;98786.85;108812;1260;58966;-72
2024/03/13 06:37:05;;;;;;;73.90;46.50;;;;;;;6.59;100.00;98789.30;108954;1260;59018;-73
2024/03/13 06:39:32;;;;;;;71.60;46.30;;;;;;;6.60;100.00;98790.49;108928;1260;65398;-74
2024/03/13 06:41:58;;;;;;;72.80;47.20;;;;;;;6.62;100.00;98788.84;108918;1260;60286;-75
2024/03/13 06:44:26;;;;;;;71.70;45.80;;;;;;;6.64;100.00;98791.90;108932;1260;65010;-74
2024/03/13 06:46:52;;;;;;;72.60;47.40;;;;;;;6.66;100.00;98795.52;108917;1260;59676;-74
2024/03/13 06:49:19;;;;;;;71.70;45.80;;;;;;;6.69;100.00;98799.94;108962;1260;58824;-75
2024/03/13 06:51:45;;;;;;;75.70;47.40;;;;;;;6.71;100.00;98803.34;108830;1260;64632;-74
2024/03/13 06:54:12;;;;;;;76.10;49.90;;;;;;;6.73;100.00;98801.83;108967;1260;59330;-74
2024/03/13 06:56:39;;;;;;;76.10;47.90;;;;;;;6.73;100.00;98804.62;108969;1259;62801;-74
2024/03/13 06:59:06;;;;;;;72.70;47.40;;;;;;;6.73;100.00;98804.67;108931;1260;59057;-74
2024/03/13 07:01:36;;;;;;;71.90;45.00;;;;;;;6.73;100.00;98806.42;108965;1260;59183;-75
2024/03/13 07:04:03;;;;;;;74.30;45.70;;;;;;;6.73;100.00;98805.85;108960;1259;64629;-74
2024/03/13 07:06:29;;;;;;;74.70;45.90;;;;;;;6.76;100.00;98802.88;108971;1260;61417;-74
2024/03/13 07:08:56;;;;;;;77.90;48.30;;;;;;;6.78;100.00;98805.06;108731;1260;64077;-73
2024/03/13 07:11:22;;;;;;;71.60;46.80;;;;;;;6.81;100.00;98806.69;108979;1259;59024;-73
2024/03/13 07:13:50;;;;;;;75.00;46.80;;;;;;;6.85;100.00;98807.36;108978;1260;59246;-74
2024/03/13 07:16:16;;;;;;;72.50;42.60;;;;;;;6.91;100.00;98809.81;108945;1259;65711;-73
2024/03/13 07:18:43;;;;;;;77.00;47.20;;;;;;;6.96;100.00;98805.86;108949;1260;59019;-74
2024/03/13 07:21:09;;;;;;;78.80;49.00;;;;;;;7.00;100.00;98805.81;108982;1260;59353;-74
2024/03/13 07:23:37;;;;;;;74.00;46.30;;;;;;;7.05;100.00;98804.84;108941;1259;59239;-74
2024/03/13 07:26:07;;;;;;;78.40;47.20;;;;;;;7.12;100.00;98807.62;108957;1260;59256;-74
2024/03/13 07:28:37;;;;;;;67.90;42.40;;;;;;;7.17;100.00;98806.95;108970;1260;65006;-73
2024/03/13 07:31:07;;;;;;;76.70;46.70;;;;;;;7.20;100.00;98807.52;109001;1260;60318;-75
2024/03/13 07:33:34;;;;;;;71.80;44.70;;;;;;;7.23;100.00;98809.68;108834;1260;63801;-73
2024/03/13 07:36:01;;;;;;;72.90;45.40;;;;;;;7.24;100.00;98810.98;108932;1260;59272;-73
2024/03/13 07:38:28;;;;;;;76.40;47.70;;;;;;;7.24;100.00;98812.77;108784;1260;59330;-77
2024/03/13 07:40:55;;;;;;;78.50;46.40;;;;;;;7.22;100.00;98813.27;108873;1261;65765;-77
2024/03/13 07:43:21;;;;;;;78.20;47.10;;;;;;;7.19;100.00;98814.66;108919;1260;59017;-76
2024/03/13 07:45:48;;;;;;;79.40;47.00;;;;;;;7.18;100.00;98813.81;108867;1260;59895;-75
2024/03/13 07:48:14;;;;;;;74.40;44.90;;;;;;;7.16;100.00;98816.09;108858;1260;58963;-77
2024/03/13 07:50:41;;;;;;;77.30;46.00;;;;;;;7.14;100.00;98817.58;108845;1260;59001;-75
2024/03/13 07:53:08;;;;;;;77.60;47.30;;;;;;;7.15;100.00;98817.92;108794;1260;64492;-75
2024/03/13 07:55:36;;;;;;;78.00;45.90;;;;;;;7.14;100.00;98820.59;108839;1260;59835;-75
2024/03/13 07:58:03;;;;;;;70.30;44.10;;;;;;;7.14;100.00;98821.31;108865;1260;63795;-82
2024/03/13 08:00:29;;;;;;;71.70;45.40;;;;;;;7.14;100.00;98820.23;108885;1260;59044;-81
2024/03/13 08:02:56;;;;;;;77.20;46.90;;;;;;;7.12;100.00;98819.62;108898;1260;59091;-80
2024/03/13 08:05:23;;;;;;;72.70;43.90;;;;;;;7.13;100.00;98822.23;108912;1260;65778;-84
2024/03/13 08:07:50;;;;;;;75.70;47.90;;;;;;;7.13;100.00;98825.58;108915;1260;59539;-76
2024/03/13 08:10:17;;;;;;;70.30;44.50;;;;;;;7.15;100.00;98824.27;108862;1260;59294;-75
2024/03/13 08:12:44;;;;;;;76.50;46.00;;;;;;;7.17;100.00;98827.81;108872;1260;59189;-77
2024/03/13 08:15:11;;;;;;;80.90;46.90;;;;;;;7.21;100.00;98830.63;108894;1260;58995;-76
2024/03/13 08:17:38;;;;;;;75.70;45.70;;;;;;;7.21;100.00;98828.33;108938;1260;76234;-76
2024/03/13 08:20:06;;;;;;;76.10;46.40;;;;;;;7.20;100.00;98832.42;108888;1260;59528;-74
2024/03/13 08:22:32;;;;;;;81.90;48.20;;;;;;;7.20;100.00;98834.04;108874;1260;63757;-73
2024/03/13 08:24:59;;;;;;;75.70;45.20;;;;;;;7.20;100.00;98832.95;108907;1260;59004;-72
2024/03/13 08:27:26;;;;;;;88.10;49.80;;;;;;;7.21;100.00;98835.72;108770;1260;59091;-73
2024/03/13 08:29:53;;;;;;;94.00;51.70;;;;;;;7.21;100.00;98837.35;108922;1261;64486;-72
2024/03/13 08:32:21;;;;;;;84.30;49.90;;;;;;;7.21;100.00;98838.42;108935;1260;59284;-73
2024/03/13 08:34:49;;;;;;;88.40;50.30;;;;;;;7.21;100.00;98836.65;108897;1260;62660;-73
2024/03/13 08:37:16;;;;;;;79.50;44.80;;;;;;;7.23;100.00;98837.73;108899;1260;59402;-73
2024/03/13 08:39:42;;;;;;;91.80;51.30;;;;;;;7.24;100.00;98833.96;108889;1264;59005;-73
2024/03/13 08:42:10;;;;;;;81.80;49.40;;;;;;;7.23;100.00;98837.20;108766;1260;59440;-72
2024/03/13 08:44:36;;;;;;;82.90;48.90;;;;;;;7.22;100.00;98840.82;108912;1260;60050;-73
2024/03/13 08:47:03;;;;;;;81.90;47.30;;;;;;;7.24;100.00;98844.95;108947;1260;63012;-72
2024/03/13 08:49:30;;;;;;;83.70;48.80;;;;;;;7.26;100.00;98850.31;108926;1260;59243;-73
2024/03/13 08:51:57;;;;;;;85.60;49.30;;;;;;;7.27;100.00;98853.27;108953;1260;59061;-74
2024/03/13 08:54:23;;;;;;;77.90;45.50;;;;;;;7.30;100.00;98854.67;108931;1260;59519;-72
2024/03/13 08:56:49;;;;;;;85.80;47.40;;;;;;;7.33;100.00;98854.20;108774;1260;59109;-73
2024/03/13 08:59:16;;;;;;;81.60;45.60;;;;;;;7.31;100.00;98851.42;108898;1261;59068;-72
2024/03/13 09:01:43;;;;;;;90.00;47.00;;;;;;;7.32;100.00;98852.13;108908;1260;58982;-73
2024/03/13 09:04:10;;;;;;;92.00;50.10;;;;;;;7.33;100.00;98855.41;108939;1260;59032;-72
2024/03/13 09:06:38;;;;;;;93.10;51.70;;;;;;;7.37;100.00;98862.96;108934;1260;66212;-72
2024/03/13 09:09:04;;;;;;;86.40;50.70;;;;;;;7.40;100.00;98866.85;108943;1264;59023;-72
2024/03/13 09:11:31;;;;;;;84.10;46.40;;;;;;;7.43;100.00;98865.58;108881;1261;59041;-73
2024/03/13 09:14:03;;;;;;;85.60;49.40;;;;;;;7.45;100.00;98869.02;108881;1264;59013;-73
2024/03/13 09:16:35;;;;;;;97.20;53.10;;;;;;;7.43;100.00;98870.94;108944;1261;59446;-73
2024/03/13 09:19:02;;;;;;;85.50;50.10;;;;;;;7.42;100.00;98868.65;108936;1260;64543;-72
2024/03/13 09:21:28;;;;;;;91.20;51.80;;;;;;;7.43;100.00;98871.82;108916;1264;59087;-72
2024/03/13 09:23:55;;;;;;;82.10;46.40;;;;;;;7.43;100.00;98874.09;108881;1260;59038;-72
2024/03/13 09:26:21;;;;;;;83.50;45.90;;;;;;;7.43;100.00;98875.88;108731;1264;59073;-72
2024/03/13 09:28:48;;;;;;;85.00;48.10;;;;;;;7.42;100.00;98879.98;108894;1261;58893;-72
2024/03/13 09:31:14;;;;;;;94.20;50.80;;;;;;;7.43;100.00;98881.20;108819;1260;74814;-72
2024/03/13 09:33:41;;;;;;;78.50;46.80;;;;;;;7.48;100.00;98881.45;108925;1261;60042;-74
2024/03/13 09:36:13;;;;;;;84.40;49.00;;;;;;;7.53;100.00;98884.16;108872;1260;59102;-72
2024/03/13 09:38:42;;;;;;;84.50;47.70;;;;;;;7.57;100.00;98889.58;108930;1261;59056;-73
2024/03/13 09:41:13;;;;;;;73.70;43.70;;;;;;;7.58;100.00;98892.17;108938;1260;59062;-72
2024/03/13 09:43:40;;;;;;;76.10;43.80;;;;;;;7.58;100.00;98897.48;108877;1260;65723;-72
2024/03/13 09:46:07;;;;;;;79.30;44.50;;;;;;;7.61;100.00;98901.56;108794;1263;138997;-72
2024/03/13 09:48:37;;;;;;;74.60;45.00;;;;;;;7.63;100.00;98903.91;108916;1260;62614;-73
2024/03/13 09:51:04;;;;;;;83.60;46.20;;;;;;;7.65;100.00;98907.15;108896;1260;58955;-72
2024/03/13 09:53:31;;;;;;;76.80;45.90;;;;;;;7.66;100.00;98909.77;108915;1260;58928;-72
2024/03/13 09:55:58;;;;;;;69.40;42.60;;;;;;;7.66;100.00;98910.30;108946;1261;66024;-72
2024/03/13 09:58:25;;;;;;;83.60;48.20;;;;;;;7.64;100.00;98912.85;108911;1260;58997;-73
2024/03/13 10:00:53;;;;;;;75.70;44.90;;;;;;;7.66;100.00;98915.92;108921;1260;64074;-73
2024/03/13 10:03:25;;;;;;;84.10;47.80;;;;;;;7.70;100.00;98915.03;108918;1260;59026;-73
2024/03/13 10:06:05;;;;;;;82.60;47.10;;;;;;;7.74;100.00;98916.77;108942;1260;59078;-73
2024/03/13 10:08:34;;;;;;;88.90;49.80;;;;;;;7.75;100.00;98916.48;108924;1260;65753;-72
2024/03/13 10:11:01;;;;;;;81.10;48.10;;;;;;;7.76;100.00;98915.55;108911;1261;60226;-74
2024/03/13 10:13:33;;;;;;;84.50;50.20;;;;;;;7.75;100.00;98913.50;108704;1261;62762;-72
2024/03/13 10:16:01;;;;;;;77.20;46.70;;;;;;;7.77;100.00;98916.02;108926;1260;59313;-72
2024/03/13 10:18:29;;;;;;;84.30;46.60;;;;;;;7.78;100.00;98917.08;108729;1260;59035;-72
2024/03/13 10:21:12;;;;;;;84.30;48.30;;;;;;;7.76;100.00;98916.08;108929;1260;66829;-73
2024/03/13 10:23:44;;;;;;;86.40;46.30;;;;;;;7.76;100.00;98917.86;108914;1260;59862;-74
2024/03/13 10:26:11;;;;;;;80.30;45.40;;;;;;;7.76;100.00;98920.52;108908;1260;62620;-72
2024/03/13 10:28:38;;;;;;;84.70;48.00;;;;;;;7.73;100.00;98922.11;108907;1260;59429;-73
2024/03/13 10:31:05;;;;;;;89.30;49.10;;;;;;;7.73;100.00;98919.44;108920;1260;59086;-73
2024/03/13 10:33:31;;;;;;;87.70;48.90;;;;;;;7.75;100.00;98926.96;108937;1260;66070;-72
2024/03/13 10:35:58;;;;;;;84.60;49.50;;;;;;;7.73;100.00;98924.91;108915;1260;60305;-73
2024/03/13 10:38:24;;;;;;;77.30;44.50;;;;;;;7.75;100.00;98927.49;108889;1260;62537;-72
2024/03/13 10:40:51;;;;;;;83.00;47.40;;;;;;;7.76;100.00;98929.54;108921;1260;59008;-72
2024/03/13 10:43:18;;;;;;;82.80;47.60;;;;;;;7.78;100.00;98932.63;108910;1260;58978;-72
2024/03/13 10:45:48;;;;;;;78.80;44.30;;;;;;;7.80;100.00;98929.81;108906;1260;65750;-73
2024/03/13 10:48:17;;;;;;;81.60;45.20;;;;;;;7.82;100.00;98930.98;108954;1260;61561;-73
2024/03/13 10:50:46;;;;;;;78.80;46.00;;;;;;;7.82;100.00;98929.92;108895;1260;64288;-72
2024/03/13 10:53:12;;;;;;;81.10;45.00;;;;;;;7.83;100.00;98931.10;108900;1260;59025;-73
2024/03/13 10:55:39;;;;;;;79.80;44.90;;;;;;;7.82;100.00;98933.27;108920;1260;59042;-72
2024/03/13 10:58:21;;;;;;;72.80;42.70;;;;;;;7.83;100.00;98931.96;108882;1260;66256;-72
2024/03/13 11:00:51;;;;;;;74.70;42.60;;;;;;;7.86;100.00;98934.09;108922;1260;60028;-72
2024/03/13 11:03:17;;;;;;;70.00;40.30;;;;;;;7.92;100.00;98933.77;108901;1260;64029;-74
2024/03/13 11:05:44;;;;;;;69.60;40.40;;;;;;;7.95;100.00;98932.52;108904;1260;59070;-73
2024/03/13 11:08:11;;;;;;;61.70;36.80;;;;;;;7.98;100.00;98932.53;108901;1260;59028;-75
2024/03/13 11:10:38;;;;;;;65.80;38.60;;;;;;;8.00;100.00;98930.99;108954;1260;64979;-73
2024/03/13 11:13:05;;;;;;;67.60;38.90;;;;;;;8.05;100.00;98930.53;108956;1259;61410;-72
2024/03/13 11:15:36;;;;;;;58.60;36.30;;;;;;;8.10;100.00;98925.63;108939;1260;63965;-73
2024/03/13 11:18:04;;;;;;;56.30;34.80;;;;;;;8.16;100.00;98929.74;108923;1260;59040;-73
2024/03/13 11:20:41;;;;;;;55.00;34.00;;;;;;;8.22;100.00;98923.91;108975;1260;59282;-72
2024/03/13 11:23:41;;;;;;;58.40;34.60;;;;;;;8.26;100.00;98922.61;108964;1260;66487;-74
2024/03/13 11:26:11;;;;;;;55.40;34.70;;;;;;;8.32;100.00;98921.48;108503;1267;60238;-73
2024/03/13 11:28:38;;;;;;;55.30;34.70;;;;;;;8.40;100.00;98923.03;108147;1267;62892;-73
2024/03/13 11:31:05;;;;;;;53.70;34.40;;;;;;;8.48;100.00;98920.81;108448;1267;59119;-73
2024/03/13 11:33:31;;;;;;;53.60;34.90;;;;;;;8.57;100.00;98921.33;108447;1267;59397;-73